createdAt,value
2018-11-07T00:02:24.290Z,37.70
2018-11-07T00:04:53.345Z,38.77
2018-11-07T00:07:22.530Z,38.70
2018-11-07T00:09:52.035Z,36.13
2018-11-07T00:12:21.021Z,35.80
2018-11-07T00:14:51.180Z,44.57
2018-11-07T00:17:28.159Z,39.83
2018-11-07T00:19:59.511Z,38.57
2018-11-07T00:22:28.407Z,39.47
2018-11-07T00:24:57.316Z,38.53
2018-11-07T00:27:26.293Z,35.97
2018-11-07T00:29:56.192Z,38.37
2018-11-07T00:32:25.059Z,37.87
2018-11-07T00:35:56.850Z,40.17
2018-11-07T00:38:26.720Z,42.63
2018-11-07T00:40:56.131Z,37.30
2018-11-07T00:43:25.437Z,36.40
2018-11-07T00:45:54.399Z,38.70
2018-11-07T00:48:26.676Z,39.27
2018-11-07T00:50:55.535Z,37.67
2018-11-07T00:53:26.732Z,43.80
2018-11-07T00:55:57.632Z,41.77
2018-11-07T00:58:27.044Z,41.30
2018-11-07T01:00:56.797Z,36.13
2018-11-07T01:03:25.649Z,36.73
2018-11-07T01:05:54.544Z,35.57
2018-11-07T01:08:23.557Z,37.50
2018-11-07T01:10:52.408Z,38.70
2018-11-07T01:13:24.385Z,38.47
2018-11-07T01:15:53.295Z,35.87
2018-11-07T01:18:22.440Z,34.37
2018-11-07T01:20:51.787Z,38.00
2018-11-07T01:23:21.279Z,38.73
2018-11-07T01:25:53.235Z,37.13
2018-11-07T01:28:25.213Z,37.00
2018-11-07T01:30:54.331Z,39.50
2018-11-07T01:33:23.147Z,34.73
2018-11-07T01:35:52.037Z,31.43
2018-11-07T01:38:21.058Z,36.17
2018-11-07T01:40:51.640Z,32.00
2018-11-07T01:43:20.458Z,35.67
2018-11-07T01:45:49.384Z,32.63
2018-11-07T01:48:25.357Z,31.60
2018-11-07T01:50:55.366Z,30.23
2018-11-07T01:53:24.185Z,29.20
2018-11-07T01:55:53.135Z,31.83
2018-11-07T01:58:26.684Z,28.60
2018-11-07T02:00:55.640Z,29.10
2018-11-07T02:03:26.535Z,28.50
2018-11-07T02:05:58.361Z,28.93
2018-11-07T02:08:29.990Z,31.17
2018-11-07T02:10:59.772Z,28.27
2018-11-07T02:13:29.281Z,27.43
2018-11-07T02:15:58.315Z,30.30
2018-11-07T02:18:27.168Z,27.80
2018-11-07T02:21:02.390Z,27.70
2018-11-07T02:23:31.243Z,31.20
2018-11-07T02:26:00.496Z,29.27
2018-11-07T02:28:29.481Z,28.13
2018-11-07T02:30:58.354Z,29.33
2018-11-07T02:33:27.222Z,28.47
2018-11-07T02:35:57.588Z,34.13
2018-11-07T02:38:26.417Z,46.67
2018-11-07T02:40:56.682Z,47.00
2018-11-07T02:43:31.696Z,47.03
2018-11-07T02:46:00.631Z,44.87
2018-11-07T02:48:31.262Z,48.30
2018-11-07T02:51:07.768Z,52.10
2018-11-07T02:53:42.792Z,51.30
2018-11-07T02:56:12.411Z,49.90
2018-11-07T02:58:41.322Z,48.23
2018-11-07T03:01:11.171Z,48.90
2018-11-07T03:03:48.529Z,52.10
2018-11-07T03:06:17.373Z,45.10
2018-11-07T03:08:46.242Z,52.13
2018-11-07T03:11:15.417Z,45.90
2018-11-07T03:13:44.916Z,46.47
2018-11-07T03:16:13.815Z,43.77
2018-11-07T03:18:42.731Z,41.83
2018-11-07T03:21:13.947Z,41.97
2018-11-07T03:23:42.790Z,44.23
2018-11-07T03:26:11.805Z,43.80
2018-11-07T03:28:41.220Z,43.67
2018-11-07T03:31:13.856Z,41.90
2018-11-07T03:33:42.790Z,43.10
2018-11-07T03:36:14.830Z,42.03
2018-11-07T03:38:43.658Z,46.90
2018-11-07T03:41:13.366Z,43.30
2018-11-07T03:43:42.265Z,49.37
2018-11-07T03:46:11.570Z,47.53
2018-11-07T03:49:11.698Z,50.13
2018-11-07T03:51:40.646Z,43.87
2018-11-07T03:54:09.943Z,45.00
2018-11-07T03:56:40.291Z,44.13
2018-11-07T03:59:09.436Z,42.73
2018-11-07T04:01:38.343Z,43.83
2018-11-07T04:04:07.476Z,44.73
2018-11-07T04:06:39.267Z,43.67
2018-11-07T04:09:12.118Z,41.37
2018-11-07T04:11:41.814Z,41.70
2018-11-07T04:14:10.679Z,42.30
2018-11-07T04:16:39.583Z,42.63
2018-11-07T04:19:09.299Z,43.20
2018-11-07T04:21:39.443Z,41.43
2018-11-07T04:24:08.287Z,37.40
2018-11-07T04:26:38.175Z,39.83
2018-11-07T04:29:07.552Z,35.57
2018-11-07T04:31:38.887Z,35.37
2018-11-07T04:34:07.726Z,36.47
2018-11-07T04:36:36.628Z,36.53
2018-11-07T04:39:08.700Z,37.10
2018-11-07T04:41:37.538Z,38.37
2018-11-07T04:44:06.883Z,38.70
2018-11-07T04:46:35.765Z,42.17
2018-11-07T04:49:04.887Z,38.60
2018-11-07T04:51:34.382Z,39.37
2018-11-07T04:54:03.330Z,39.80
2018-11-07T04:56:32.220Z,38.70
2018-11-07T04:59:01.512Z,45.67
2018-11-07T05:01:30.335Z,34.90
2018-11-07T05:03:59.230Z,38.47
2018-11-07T05:06:28.439Z,33.67
2018-11-07T05:08:57.774Z,35.93
2018-11-07T05:11:28.429Z,32.60
2018-11-07T05:13:57.270Z,35.20
2018-11-07T05:16:28.698Z,39.67
2018-11-07T05:18:58.390Z,33.83
2018-11-07T05:21:27.214Z,35.90
2018-11-07T05:23:56.604Z,34.93
2018-11-07T05:26:27.274Z,35.40
2018-11-07T05:28:58.247Z,37.30
2018-11-07T05:31:36.090Z,32.60
2018-11-07T05:34:04.940Z,45.23
2018-11-07T05:36:33.783Z,37.40
2018-11-07T05:39:05.165Z,45.23
2018-11-07T05:41:35.547Z,56.67
2018-11-07T05:44:05.748Z,58.37
2018-11-07T05:46:35.965Z,44.60
2018-11-07T05:49:05.738Z,44.70
2018-11-07T05:51:35.310Z,45.47
2018-11-07T05:54:05.003Z,49.00
2018-11-07T05:56:34.517Z,68.20
2018-11-07T05:59:03.820Z,61.97
2018-11-07T06:01:35.745Z,48.43
2018-11-07T06:04:04.570Z,48.97
2018-11-07T06:06:33.822Z,46.37
2018-11-07T06:09:03.714Z,55.77
2018-11-07T06:11:33.150Z,55.77
2018-11-07T06:14:04.574Z,49.67
2018-11-07T06:16:33.787Z,52.00
2018-11-07T06:19:02.795Z,53.00
2018-11-07T06:21:31.592Z,48.50
2018-11-07T06:24:02.067Z,51.83
2018-11-07T06:26:31.392Z,91.77
2018-11-07T06:29:01.107Z,61.97
2018-11-07T06:31:30.343Z,77.87
2018-11-07T06:34:00.740Z,67.53
2018-11-07T06:36:32.513Z,83.27
2018-11-07T06:39:04.544Z,72.27
2018-11-07T06:44:39.500Z,67.57
2018-11-07T06:47:10.314Z,70.43
2018-11-07T06:49:39.641Z,60.27
2018-11-07T06:52:10.527Z,48.37
2018-11-07T06:54:39.387Z,58.00
2018-11-07T06:57:09.632Z,54.63
2018-11-07T06:59:38.476Z,45.43
2018-11-07T07:02:09.707Z,48.50
2018-11-07T07:04:38.550Z,45.67
2018-11-07T07:07:07.410Z,44.83
2018-11-07T07:09:36.240Z,42.57
2018-11-07T07:12:05.296Z,47.00
2018-11-07T07:14:35.403Z,42.90
2018-11-07T07:17:07.511Z,46.10
2018-11-07T07:19:36.427Z,44.80
2018-11-07T07:22:08.496Z,41.67
2018-11-07T07:24:37.358Z,44.47
2018-11-07T07:27:06.396Z,42.10
2018-11-07T07:29:38.398Z,42.73
2018-11-07T07:32:07.655Z,46.37
2018-11-07T07:41:41.338Z,44.47
2018-11-07T07:44:12.289Z,46.53
2018-11-07T07:46:41.129Z,45.33
2018-11-07T07:49:10.500Z,40.33
2018-11-07T07:51:40.662Z,38.40
2018-11-07T07:54:11.209Z,42.23
2018-11-07T07:56:40.071Z,33.80
2018-11-07T07:59:08.927Z,38.13
2018-11-07T08:01:41.710Z,38.43
2018-11-07T08:04:13.834Z,35.40
2018-11-07T08:06:44.344Z,38.30
2018-11-07T08:09:14.794Z,35.67
2018-11-07T08:11:44.663Z,33.70
2018-11-07T08:14:14.392Z,34.33
2018-11-07T08:16:45.059Z,36.63
2018-11-07T08:19:14.363Z,32.03
2018-11-07T08:21:43.389Z,32.40
2018-11-07T08:24:12.330Z,32.57
2018-11-07T08:26:41.154Z,30.67
2018-11-07T08:29:10.112Z,31.83
2018-11-07T08:31:46.284Z,33.33
2018-11-07T08:34:15.142Z,31.30
2018-11-07T08:36:44.016Z,31.37
2018-11-07T08:39:17.247Z,29.63
2018-11-07T08:41:46.425Z,29.97
2018-11-07T08:44:16.303Z,31.30
2018-11-07T08:46:45.857Z,25.47
2018-11-07T08:49:14.755Z,23.97
2018-11-07T08:51:46.434Z,28.00
2018-11-07T08:54:17.264Z,25.37
2018-11-07T08:56:47.908Z,25.37
2018-11-07T08:59:16.776Z,26.43
2018-11-07T09:01:46.206Z,24.77
2018-11-07T09:04:17.839Z,21.10
2018-11-07T09:09:23.628Z,21.67
2018-11-07T09:11:58.698Z,22.33
2018-11-07T09:14:27.571Z,22.50
2018-11-07T09:16:56.450Z,20.73
2018-11-07T09:19:25.727Z,25.47
2018-11-07T09:22:00.107Z,25.57
2018-11-07T09:24:29.322Z,27.03
2018-11-07T09:27:05.712Z,20.70
2018-11-07T09:29:35.237Z,20.80
2018-11-07T09:32:06.303Z,23.47
2018-11-07T09:34:35.952Z,24.73
2018-11-07T09:37:06.468Z,22.77
2018-11-07T09:39:36.488Z,25.97
2018-11-07T09:42:05.766Z,26.43
2018-11-07T09:44:35.874Z,21.73
2018-11-07T09:47:06.103Z,22.17
2018-11-07T09:49:34.942Z,29.70
2018-11-07T09:52:03.773Z,23.67
2018-11-07T09:54:35.125Z,26.33
2018-11-07T09:57:10.140Z,26.27
2018-11-07T10:02:42.965Z,21.83
2018-11-07T10:05:13.474Z,21.47
2018-11-07T10:07:44.035Z,25.63
2018-11-07T10:10:21.319Z,21.17
2018-11-07T10:12:52.953Z,22.93
2018-11-07T10:15:23.263Z,21.47
2018-11-07T10:17:53.464Z,21.27
2018-11-07T10:20:24.131Z,21.83
2018-11-07T10:22:54.373Z,21.90
2018-11-07T10:25:23.614Z,24.77
2018-11-07T10:27:53.598Z,21.63
2018-11-07T10:30:22.436Z,22.27
2018-11-07T10:33:05.901Z,21.50
2018-11-07T10:35:34.840Z,23.50
2018-11-07T10:38:08.862Z,24.73
2018-11-07T10:40:38.591Z,24.67
2018-11-07T10:43:07.578Z,23.50
2018-11-07T10:45:36.428Z,20.30
2018-11-07T10:49:20.020Z,21.00
2018-11-07T10:51:49.789Z,25.50
2018-11-07T10:54:22.278Z,24.27
2018-11-07T10:56:53.224Z,21.93
2018-11-07T10:59:22.181Z,22.43
2018-11-07T11:01:57.158Z,25.80
2018-11-07T11:04:29.445Z,22.70
2018-11-07T11:08:14.458Z,24.73
2018-11-07T11:10:43.333Z,23.50
2018-11-07T11:13:26.666Z,26.50
2018-11-07T11:16:00.796Z,25.30
2018-11-07T11:18:29.905Z,23.10
2018-11-07T11:20:59.071Z,24.83
2018-11-07T11:23:27.916Z,20.80
2018-11-07T11:26:04.247Z,22.57
2018-11-07T11:28:34.562Z,26.10
2018-11-07T11:31:04.452Z,23.83
2018-11-07T11:33:33.300Z,25.77
2018-11-07T11:36:02.163Z,23.50
2018-11-07T11:38:33.746Z,26.27
2018-11-07T11:44:13.905Z,23.13
2018-11-07T11:46:43.575Z,25.20
2018-11-07T11:49:14.272Z,23.00
2018-11-07T11:51:47.459Z,25.73
2018-11-07T11:54:16.312Z,27.00
2018-11-07T11:56:45.153Z,25.63
2018-11-07T11:59:14.447Z,26.33
2018-11-07T12:01:51.547Z,28.87
2018-11-07T12:04:20.392Z,22.57
2018-11-07T12:06:50.741Z,24.37
2018-11-07T12:09:19.622Z,21.63
2018-11-07T12:11:48.535Z,25.37
2018-11-07T12:14:24.892Z,25.77
2018-11-07T12:16:54.633Z,25.70
2018-11-07T12:19:24.462Z,26.03
2018-11-07T12:21:53.301Z,26.47
2018-11-07T12:24:23.179Z,21.93
2018-11-07T12:26:52.093Z,25.93
2018-11-07T12:29:21.943Z,23.60
2018-11-07T12:31:53.311Z,25.97
2018-11-07T12:34:23.091Z,24.47
2018-11-07T12:36:51.992Z,26.53
2018-11-07T12:39:21.311Z,24.57
2018-11-07T12:41:55.191Z,24.00
2018-11-07T12:44:25.728Z,25.63
2018-11-07T12:46:57.629Z,21.90
2018-11-07T12:49:27.817Z,22.60
2018-11-07T12:51:59.788Z,22.33
2018-11-07T12:54:29.591Z,22.13
2018-11-07T12:56:59.618Z,25.50
2018-11-07T12:59:28.582Z,24.30
2018-11-07T13:01:57.458Z,24.53
2018-11-07T13:04:26.356Z,24.50
2018-11-07T13:06:55.686Z,22.73
2018-11-07T13:09:26.166Z,24.20
2018-11-07T13:11:59.091Z,27.07
2018-11-07T13:14:29.313Z,26.23
2018-11-07T13:17:02.922Z,21.47
2018-11-07T13:19:32.095Z,21.80
2018-11-07T13:22:00.985Z,23.53
2018-11-07T13:24:29.893Z,23.77
2018-11-07T13:27:03.579Z,23.27
2018-11-07T13:29:32.482Z,22.63
2018-11-07T13:32:01.407Z,24.33
2018-11-07T13:41:52.551Z,25.80
2018-11-07T13:44:29.148Z,26.27
2018-11-07T13:46:58.674Z,30.33
2018-11-07T13:49:27.539Z,31.37
2018-11-07T13:51:56.849Z,29.33
2018-11-07T13:54:25.667Z,34.07
2018-11-07T13:56:54.522Z,26.27
2018-11-07T13:59:26.661Z,28.07
2018-11-07T14:01:58.663Z,30.37
2018-11-07T14:04:35.574Z,29.00
2018-11-07T14:07:05.141Z,29.77
2018-11-07T14:09:34.144Z,26.10
2018-11-07T14:12:04.831Z,28.67
2018-11-07T14:14:34.320Z,33.33
2018-11-07T14:17:04.158Z,32.17
2018-11-07T14:19:32.975Z,28.53
2018-11-07T14:22:02.418Z,27.40
2018-11-07T14:24:33.484Z,30.13
2018-11-07T14:27:04.780Z,28.13
2018-11-07T14:29:36.640Z,27.00
2018-11-07T14:32:06.926Z,31.20
2018-11-07T14:34:37.567Z,29.63
2018-11-07T14:37:08.306Z,32.47
2018-11-07T14:39:39.180Z,26.93
2018-11-07T14:42:08.115Z,30.97
2018-11-07T14:44:38.099Z,29.63
2018-11-07T14:47:12.615Z,30.27
2018-11-07T14:49:42.702Z,30.77
2018-11-07T14:52:13.052Z,34.27
2018-11-07T14:54:41.849Z,32.43
2018-11-07T14:57:12.376Z,35.03
2018-11-07T14:59:44.715Z,35.57
2018-11-07T15:02:14.267Z,27.83
2018-11-07T15:04:45.920Z,30.47
2018-11-07T15:07:31.790Z,28.60
2018-11-07T15:10:00.663Z,28.33
2018-11-07T15:12:31.739Z,31.10
2018-11-07T15:15:01.892Z,29.37
2018-11-07T15:17:31.538Z,28.27
2018-11-07T15:20:04.203Z,33.07
2018-11-07T15:22:34.347Z,28.33
2018-11-07T15:25:03.256Z,28.67
2018-11-07T15:27:32.774Z,30.70
2018-11-07T15:30:02.320Z,31.17
2018-11-07T15:32:32.187Z,28.60
2018-11-07T15:35:02.341Z,27.13
2018-11-07T15:37:31.540Z,26.23
2018-11-07T15:40:03.395Z,25.77
2018-11-07T15:42:32.198Z,28.40
2018-11-07T15:45:01.068Z,26.83
2018-11-07T15:47:30.795Z,26.13
2018-11-07T15:50:05.935Z,28.43
2018-11-07T15:52:34.735Z,29.70
2018-11-07T15:55:04.619Z,24.23
2018-11-07T15:57:34.256Z,32.77
2018-11-07T16:00:06.949Z,29.23
2018-11-07T16:02:36.356Z,30.70
2018-11-07T16:05:06.855Z,30.47
2018-11-07T16:07:38.695Z,30.50
2018-11-07T16:10:09.812Z,29.13
2018-11-07T16:12:39.234Z,29.90
2018-11-07T16:15:11.140Z,27.37
2018-11-07T16:17:40.533Z,28.47
2018-11-07T16:20:12.666Z,30.60
2018-11-07T16:22:42.586Z,28.53
2018-11-07T16:25:12.215Z,27.00
2018-11-07T16:27:42.023Z,27.70
2018-11-07T16:30:15.255Z,22.40
2018-11-07T16:32:46.289Z,27.27
2018-11-07T16:35:21.367Z,27.17
2018-11-07T16:37:51.170Z,31.47
2018-11-07T16:41:39.462Z,31.57
2018-11-07T16:44:10.465Z,29.47
2018-11-07T16:46:44.095Z,28.23
2018-11-07T16:49:14.685Z,29.27
2018-11-07T16:51:51.198Z,30.33
2018-11-07T16:57:26.699Z,30.77
2018-11-07T16:59:56.527Z,28.97
2018-11-07T17:02:27.323Z,30.17
2018-11-07T17:05:02.942Z,32.83
2018-11-07T17:07:33.715Z,33.97
2018-11-07T17:10:09.500Z,30.87
2018-11-07T17:12:38.335Z,31.80
2018-11-07T17:15:11.466Z,30.30
2018-11-07T17:17:40.718Z,36.10
2018-11-07T17:20:13.528Z,40.00
2018-11-07T17:22:47.713Z,35.97
2018-11-07T17:25:18.186Z,36.60
2018-11-07T17:27:47.812Z,31.20
2018-11-07T17:30:18.743Z,32.40
2018-11-07T17:32:48.477Z,31.03
2018-11-07T17:35:19.383Z,32.53
2018-11-07T17:37:48.489Z,36.30
2018-11-07T17:40:22.708Z,38.00
2018-11-07T17:42:52.023Z,33.30
2018-11-07T17:45:27.488Z,35.03
2018-11-07T17:47:56.460Z,31.17
2018-11-07T17:50:25.326Z,30.47
2018-11-07T17:53:02.592Z,34.40
2018-11-07T17:55:35.390Z,34.80
2018-11-07T17:58:04.572Z,29.40
2018-11-07T18:00:36.187Z,28.40
2018-11-07T18:03:06.703Z,24.67
2018-11-07T18:05:36.065Z,27.33
2018-11-07T18:08:09.295Z,25.17
2018-11-07T18:10:38.727Z,32.87
2018-11-07T18:13:09.286Z,23.17
2018-11-07T18:15:40.471Z,29.00
2018-11-07T18:18:10.090Z,30.67
2018-11-07T18:20:38.952Z,33.20
2018-11-07T18:23:09.326Z,38.27
2018-11-07T18:25:39.415Z,30.10
2018-11-07T18:28:08.791Z,38.53
2018-11-07T18:30:44.943Z,35.23
2018-11-07T18:33:17.704Z,42.90
2018-11-07T18:35:47.510Z,40.10
2018-11-07T18:38:18.126Z,38.67
2018-11-07T18:40:47.308Z,40.57
2018-11-07T18:43:16.343Z,37.70
2018-11-07T18:45:47.269Z,37.83
2018-11-07T18:48:16.135Z,39.50
2018-11-07T18:50:47.723Z,40.07
2018-11-07T18:53:17.548Z,40.87
2018-11-07T18:58:48.574Z,41.60
2018-11-07T19:01:20.295Z,36.07
2018-11-07T19:03:50.319Z,35.97
2018-11-07T19:06:20.173Z,35.10
2018-11-07T19:08:50.302Z,27.27
2018-11-07T19:11:23.744Z,28.57
2018-11-07T19:13:59.064Z,28.57
2018-11-07T19:20:04.382Z,35.33
2018-11-07T19:22:35.367Z,36.90
2018-11-07T19:25:04.532Z,34.23
2018-11-07T19:27:33.939Z,34.90
2018-11-07T19:30:08.742Z,35.60
2018-11-07T19:32:39.220Z,34.23
2018-11-07T19:35:11.254Z,34.43
2018-11-07T19:37:40.486Z,32.03
2018-11-07T19:40:16.772Z,33.67
2018-11-07T19:42:48.250Z,36.53
2018-11-07T19:45:21.570Z,43.53
2018-11-07T19:47:51.951Z,45.03
2018-11-07T19:50:21.491Z,47.77
2018-11-07T19:52:54.142Z,41.37
2018-11-07T19:55:24.397Z,41.00
2018-11-07T19:57:57.153Z,42.93
2018-11-07T20:03:03.303Z,41.87
2018-11-07T20:05:41.406Z,42.80
2018-11-07T20:08:10.421Z,34.77
2018-11-07T20:10:40.587Z,37.47
2018-11-07T20:13:09.586Z,38.63
2018-11-07T20:15:39.662Z,38.37
2018-11-07T20:18:10.505Z,35.57
2018-11-07T20:20:43.322Z,32.07
2018-11-07T20:23:16.780Z,33.47
2018-11-07T20:25:50.671Z,34.10
2018-11-07T20:28:24.643Z,35.30
2018-11-07T20:30:55.177Z,35.73
2018-11-07T20:33:24.383Z,36.07
2018-11-07T20:35:53.574Z,38.07
2018-11-07T20:38:23.702Z,37.60
2018-11-07T20:41:00.746Z,35.90
2018-11-07T20:43:31.386Z,38.47
2018-11-07T20:46:00.283Z,39.43
2018-11-07T20:48:29.098Z,35.77
2018-11-07T20:51:00.388Z,35.43
2018-11-07T20:53:29.381Z,37.43
2018-11-07T20:56:00.295Z,35.53
2018-11-07T20:58:33.878Z,39.60
2018-11-07T21:01:03.023Z,38.30
2018-11-07T21:03:32.419Z,37.17
2018-11-07T21:06:02.347Z,37.83
2018-11-07T21:08:31.779Z,30.43
2018-11-07T21:11:01.063Z,33.17
2018-11-07T21:13:33.431Z,33.50
2018-11-07T21:16:02.987Z,31.00
2018-11-07T21:18:31.874Z,30.60
2018-11-07T21:21:02.438Z,30.93
2018-11-07T21:23:32.713Z,33.57
2018-11-07T21:26:02.015Z,33.87
2018-11-07T21:28:32.103Z,32.17
2018-11-07T21:31:02.972Z,34.13
2018-11-07T21:33:36.465Z,34.40
2018-11-07T21:36:08.248Z,36.23
2018-11-07T21:38:38.267Z,38.80
2018-11-07T21:41:07.579Z,37.43
2018-11-07T21:43:36.423Z,34.83
2018-11-07T21:46:09.853Z,34.57
2018-11-07T21:48:41.332Z,35.70
2018-11-07T21:51:10.230Z,30.77
2018-11-07T21:53:40.754Z,41.03
2018-11-07T21:56:10.925Z,33.77
2018-11-07T21:58:40.087Z,32.43
2018-11-07T22:01:09.006Z,34.33
2018-11-07T22:03:38.805Z,32.63
2018-11-07T22:06:08.417Z,30.23
2018-11-07T22:08:42.124Z,31.60
2018-11-07T22:11:10.943Z,37.07
2018-11-07T22:13:42.063Z,34.87
2018-11-07T22:16:14.239Z,31.80
2018-11-07T22:18:43.099Z,27.23
2018-11-07T22:21:12.757Z,31.13
2018-11-07T22:23:42.310Z,27.50
2018-11-07T22:26:16.903Z,29.53
2018-11-07T22:28:45.780Z,36.77
2018-11-07T22:31:15.215Z,30.97
2018-11-07T22:33:49.018Z,26.90
2018-11-07T22:36:19.290Z,30.83
2018-11-07T22:38:48.620Z,30.80
2018-11-07T22:41:18.363Z,30.10
2018-11-07T22:43:47.459Z,26.93
2018-11-07T22:46:17.872Z,26.43
2018-11-07T22:48:48.384Z,31.30
2018-11-07T22:51:20.618Z,32.43
2018-11-07T22:53:52.650Z,31.27
2018-11-07T22:56:26.817Z,28.97
2018-11-07T22:58:55.658Z,28.10
2018-11-07T23:01:28.576Z,35.57
2018-11-07T23:04:01.354Z,36.77
2018-11-07T23:06:36.363Z,38.23
2018-11-07T23:09:09.449Z,37.67
2018-11-07T23:11:41.630Z,35.23
2018-11-07T23:14:13.421Z,33.43
2018-11-07T23:16:43.331Z,36.90
2018-11-07T23:19:13.227Z,29.03
2018-11-07T23:21:42.436Z,38.27
2018-11-07T23:24:11.329Z,36.60
2018-11-07T23:26:40.629Z,33.20
2018-11-07T23:29:09.506Z,35.23
2018-11-07T23:31:38.303Z,31.67
2018-11-07T23:34:07.578Z,33.67
2018-11-07T23:36:36.434Z,33.43
2018-11-07T23:39:07.883Z,33.17
2018-11-07T23:41:37.530Z,36.20
2018-11-07T23:44:06.746Z,36.67
2018-11-07T23:46:37.127Z,30.30
2018-11-07T23:49:06.433Z,29.70
2018-11-07T23:51:35.742Z,30.20
2018-11-07T23:54:04.554Z,30.40
2018-11-07T23:56:33.411Z,29.90
2018-11-07T23:59:02.920Z,27.60
